Time;durP1;ratioP1;P1;durP2;ratioP2;P2;SDS_P1;SDS_P2;PMS_P1;PMS_P2;Temp;Humidity;BMP_temperature;BMP_pressure;BME280_temperature;BME280_humidity;BME280_pressure;Samples;Min_cycle;Max_cycle;Signal;HPM_P1;HPM_P2
2023/09/16 00:01:38;;;;;;;5.23;3.00;;;;;;;15.53;77.07;101417.19;5000399;28;20734;-82
2023/09/16 00:04:08;;;;;;;4.13;3.73;;;;;;;15.47;77.82;101418.03;5015622;28;20536;-82
2023/09/16 00:06:39;;;;;;;6.83;5.10;;;;;;;15.55;76.88;101415.03;5001145;28;20482;-81
2023/09/16 00:09:09;;;;;;;3.77;3.37;;;;;;;15.58;76.55;101418.19;5003028;28;20450;-81
2023/09/16 00:11:38;;;;;;;5.33;3.73;;;;;;;15.47;77.01;101410.69;5024238;28;20420;-81
2023/09/16 00:14:08;;;;;;;4.70;4.30;;;;;;;15.43;77.52;101423.09;4999885;28;20429;-82
2023/09/16 00:16:37;;;;;;;6.37;4.33;;;;;;;15.50;76.97;101421.13;5017074;28;20475;-83
2023/09/16 00:19:09;;;;;;;3.50;3.13;;;;;;;15.49;76.97;101416.75;5011136;28;20425;-82
2023/09/16 00:21:41;;;;;;;6.43;4.10;;;;;;;15.45;77.15;101422.84;4995094;28;20441;-82
2023/09/16 00:24:14;;;;;;;7.33;3.07;;;;;;;15.51;76.40;101424.75;4999232;28;20525;-81
2023/09/16 00:26:43;;;;;;;6.57;3.73;;;;;;;15.52;76.29;101416.34;5018059;28;20462;-80
2023/09/16 00:29:13;;;;;;;5.30;3.80;;;;;;;15.39;77.16;101416.41;4994059;28;20424;-81
2023/09/16 00:31:42;;;;;;;9.13;4.27;;;;;;;15.48;76.28;101416.97;5003453;28;20448;-83
2023/09/16 00:34:12;;;;;;;7.90;4.40;;;;;;;15.44;76.62;101418.50;5001090;28;20518;-83
2023/09/16 00:36:42;;;;;;;6.70;3.30;;;;;;;15.38;76.67;101411.19;4996014;28;20453;-82
2023/09/16 00:39:15;;;;;;;4.97;4.20;;;;;;;15.56;75.73;101405.81;5000955;28;20401;-82
2023/09/16 00:41:44;;;;;;;5.40;4.10;;;;;;;15.48;75.97;101409.63;4999445;28;20408;-82
2023/09/16 00:44:14;;;;;;;7.10;3.80;;;;;;;15.51;75.58;101408.38;4998762;28;20437;-81
2023/09/16 00:46:43;;;;;;;6.23;4.73;;;;;;;15.63;75.01;101406.59;4992216;28;20448;-80
2023/09/16 00:49:13;;;;;;;16.03;4.70;;;;;;;15.45;75.68;101403.75;5019072;28;20496;-81
2023/09/16 00:51:44;;;;;;;6.60;3.47;;;;;;;15.35;76.14;101406.97;4999743;28;20458;-82
2023/09/16 00:54:15;;;;;;;4.43;3.53;;;;;;;15.31;76.55;101400.31;5014780;28;20423;-80
2023/09/16 00:56:46;;;;;;;7.00;4.40;;;;;;;15.26;76.89;101396.56;4999195;28;20420;-81
2023/09/16 00:59:16;;;;;;;5.37;4.30;;;;;;;15.31;76.25;101392.13;5004606;28;20513;-82
2023/09/16 01:01:49;;;;;;;8.30;4.70;;;;;;;15.29;76.59;101396.16;5011391;28;20415;-81
2023/09/16 01:04:20;;;;;;;5.57;3.97;;;;;;;15.20;77.17;101399.13;5002088;28;20500;-82
2023/09/16 01:06:51;;;;;;;6.30;4.10;;;;;;;15.26;76.74;101385.66;5001667;28;20511;-80
2023/09/16 01:09:22;;;;;;;5.63;3.77;;;;;;;15.14;77.30;101385.56;4997142;28;20478;-81
2023/09/16 01:11:51;;;;;;;6.53;4.80;;;;;;;15.08;77.23;101387.28;4995423;28;20426;-83
2023/09/16 01:14:21;;;;;;;7.73;4.17;;;;;;;15.04;77.57;101379.75;4997284;28;20525;-84
2023/09/16 01:16:57;;;;;;;7.40;4.43;;;;;;;14.89;78.25;101381.94;4995514;28;20490;-83
2023/09/16 01:19:37;;;;;;;5.30;4.23;;;;;;;14.86;78.67;101377.78;5002216;28;20803;-82
2023/09/16 01:22:10;;;;;;;10.67;4.27;;;;;;;14.88;78.49;101383.81;4997462;28;21002;-82
2023/09/16 01:24:40;;;;;;;4.30;3.60;;;;;;;14.81;78.76;101376.75;5018318;28;20878;-81
2023/09/16 01:27:11;;;;;;;8.90;4.00;;;;;;;14.70;79.12;101379.13;4993963;28;20463;-81
2023/09/16 01:29:41;;;;;;;8.93;4.30;;;;;;;14.77;78.88;101370.88;5002954;28;20424;-81
2023/09/16 01:32:12;;;;;;;6.20;4.17;;;;;;;14.86;78.61;101369.59;5005901;28;20423;-80
2023/09/16 01:34:45;;;;;;;8.37;4.53;;;;;;;14.79;78.38;101363.34;5005799;28;20677;-82
2023/09/16 01:37:18;;;;;;;5.80;4.70;;;;;;;14.71;79.07;101361.72;5015632;28;20444;-79
2023/09/16 01:39:53;;;;;;;4.90;3.60;;;;;;;14.77;78.70;101366.28;5004439;28;20475;-83
2023/09/16 01:42:26;;;;;;;5.33;4.57;;;;;;;14.68;79.38;101361.28;5002044;28;20428;-83
2023/09/16 01:44:56;;;;;;;5.70;4.00;;;;;;;14.60;79.12;101362.41;4993365;28;20458;-82
2023/09/16 01:47:25;;;;;;;8.23;4.07;;;;;;;14.59;79.32;101359.88;5016641;28;20488;-83
2023/09/16 01:49:55;;;;;;;6.30;3.70;;;;;;;14.57;79.49;101357.38;4991460;28;20445;-83
2023/09/16 01:52:25;;;;;;;4.17;3.53;;;;;;;14.60;79.34;101364.28;4994064;28;20422;-81
2023/09/16 01:54:54;;;;;;;5.73;4.33;;;;;;;14.55;79.52;101355.94;5021554;28;20529;-81
2023/09/16 01:57:25;;;;;;;5.60;3.63;;;;;;;14.45;80.50;101350.09;5006525;28;20572;-82
2023/09/16 01:59:55;;;;;;;4.40;3.30;;;;;;;14.53;79.57;101352.56;4992473;28;21026;-83
2023/09/16 02:02:25;;;;;;;4.23;3.83;;;;;;;14.44;80.22;101351.16;4997990;28;20428;-82
2023/09/16 02:04:54;;;;;;;5.37;3.97;;;;;;;14.35;80.33;101351.38;5001807;28;20544;-81
2023/09/16 02:07:23;;;;;;;6.07;4.47;;;;;;;14.37;80.41;101355.81;5012493;28;20457;-82
2023/09/16 02:09:54;;;;;;;4.67;3.90;;;;;;;14.40;80.14;101345.31;4995039;28;20453;-81
2023/09/16 02:12:25;;;;;;;4.67;3.90;;;;;;;14.35;80.16;101351.38;4997935;28;20475;-81
2023/09/16 02:14:55;;;;;;;5.27;3.80;;;;;;;14.39;79.92;101350.97;5006647;28;20430;-81
2023/09/16 02:17:27;;;;;;;4.60;4.03;;;;;;;14.48;79.41;101346.94;4990679;28;20475;-81
2023/09/16 02:19:56;;;;;;;8.43;4.57;;;;;;;14.50;79.15;101350.28;4995567;28;20426;-81
2023/09/16 02:22:26;;;;;;;8.00;3.17;;;;;;;14.33;79.66;101339.84;5010060;28;21026;-82
2023/09/16 02:24:56;;;;;;;9.10;5.17;;;;;;;14.39;79.40;101353.69;5000935;28;20437;-81
2023/09/16 02:27:27;;;;;;;6.53;3.70;;;;;;;14.28;79.73;101347.03;5012750;28;20459;-81
2023/09/16 02:29:56;;;;;;;6.00;4.00;;;;;;;14.29;80.24;101341.34;5000113;28;20441;-81
2023/09/16 02:32:26;;;;;;;8.03;4.57;;;;;;;14.31;79.32;101341.97;4997023;28;20450;-82
2023/09/16 02:34:55;;;;;;;8.00;4.50;;;;;;;14.28;79.42;101341.56;5007658;28;20422;-81
2023/09/16 02:37:25;;;;;;;6.00;4.00;;;;;;;14.25;79.75;101337.38;5005323;28;20444;-79
2023/09/16 02:39:55;;;;;;;4.37;3.70;;;;;;;14.27;78.82;101340.75;5023539;28;20429;-79
2023/09/16 02:42:26;;;;;;;12.00;5.00;;;;;;;14.21;79.45;101341.59;5017512;28;20850;-79
2023/09/16 02:44:55;;;;;;;4.83;3.50;;;;;;;14.27;78.93;101335.28;5022738;28;20437;-79
2023/09/16 02:47:25;;;;;;;5.93;4.50;;;;;;;14.29;78.58;101327.72;5011133;28;20629;-79
2023/09/16 02:49:56;;;;;;;5.50;4.30;;;;;;;14.25;78.20;101337.38;5016418;28;20450;-82
2023/09/16 02:52:26;;;;;;;10.57;4.93;;;;;;;14.29;78.06;101326.88;4991606;28;20458;-80
2023/09/16 02:54:56;;;;;;;8.10;4.30;;;;;;;14.28;77.85;101323.31;5013608;28;20428;-80
2023/09/16 02:57:27;;;;;;;6.83;3.23;;;;;;;14.28;78.06;101328.78;4988917;28;20469;-81
2023/09/16 02:59:56;;;;;;;7.27;3.83;;;;;;;14.14;78.56;101324.44;5003008;28;20412;-81
2023/09/16 03:02:26;;;;;;;5.10;4.20;;;;;;;14.14;79.18;101329.88;4992812;28;20507;-82
2023/09/16 03:04:56;;;;;;;7.90;3.60;;;;;;;14.11;79.22;101324.88;5002370;28;20420;-80
2023/09/16 03:07:27;;;;;;;7.30;4.40;;;;;;;14.22;78.23;101329.66;5015864;28;20465;-80
2023/09/16 03:09:58;;;;;;;6.53;5.10;;;;;;;14.25;78.09;101321.06;5019459;28;20450;-78
2023/09/16 03:12:29;;;;;;;5.33;3.60;;;;;;;14.13;78.48;101321.94;5003099;28;20461;-79
2023/09/16 03:14:59;;;;;;;7.07;5.10;;;;;;;14.22;77.96;101324.22;5021361;28;20460;-82
2023/09/16 03:17:29;;;;;;;5.30;4.23;;;;;;;14.23;77.95;101317.69;4994374;28;20520;-83
2023/09/16 03:19:58;;;;;;;10.90;4.30;;;;;;;14.11;78.39;101324.88;4994772;28;20454;-83
2023/09/16 03:22:30;;;;;;;5.60;4.23;;;;;;;14.17;78.24;101318.59;5018638;28;20456;-83
2023/09/16 03:25:00;;;;;;;6.00;3.77;;;;;;;14.19;78.08;101310.19;4998871;28;20449;-83
2023/09/16 03:27:31;;;;;;;5.73;4.20;;;;;;;14.04;79.06;101305.00;5013817;28;20482;-83
2023/09/16 03:30:00;;;;;;;5.63;4.27;;;;;;;13.96;79.46;101318.84;4999334;28;20438;-83
2023/09/16 03:32:30;;;;;;;12.33;4.70;;;;;;;14.06;79.03;101321.13;4995038;28;20439;-81
2023/09/16 03:34:59;;;;;;;5.63;3.90;;;;;;;13.97;79.48;101312.38;5004931;28;20438;-82
2023/09/16 03:37:30;;;;;;;7.97;4.47;;;;;;;13.86;80.34;101304.84;5001395;28;20489;-82
2023/09/16 03:40:04;;;;;;;6.13;4.00;;;;;;;13.83;80.47;101303.41;5024504;28;20451;-82
2023/09/16 03:42:35;;;;;;;12.03;4.07;;;;;;;13.81;80.57;101308.22;5020166;28;20442;-83
2023/09/16 03:45:07;;;;;;;8.60;4.43;;;;;;;13.78;81.03;101302.38;5002197;28;20470;-82
2023/09/16 03:47:55;;;;;;;8.10;4.70;;;;;;;13.89;80.12;101299.81;5002387;28;20469;-82
2023/09/16 03:50:25;;;;;;;7.43;4.77;;;;;;;13.81;80.62;101286.47;5008351;28;20963;-82
2023/09/16 03:52:55;;;;;;;5.67;4.10;;;;;;;13.84;80.64;101285.22;4986315;28;20537;-82
2023/09/16 03:55:27;;;;;;;5.30;4.30;;;;;;;13.81;80.59;101286.47;5010853;28;20776;-82
2023/09/16 03:58:00;;;;;;;6.00;3.90;;;;;;;13.78;80.62;101277.91;4976628;28;20477;-82
2023/09/16 04:00:30;;;;;;;4.80;4.00;;;;;;;13.71;81.09;101277.91;4999802;28;21030;-82
2023/09/16 04:03:00;;;;;;;8.87;4.30;;;;;;;13.72;81.09;101276.88;4987736;28;20441;-82
2023/09/16 04:05:29;;;;;;;6.00;4.13;;;;;;;13.67;81.29;101273.94;4997429;28;20463;-80
2023/09/16 04:07:59;;;;;;;7.03;3.70;;;;;;;13.47;82.41;101284.88;5012840;28;20481;-80
2023/09/16 04:10:29;;;;;;;4.93;4.07;;;;;;;13.37;83.27;101276.31;5013888;28;20456;-80
2023/09/16 04:13:00;;;;;;;6.83;4.13;;;;;;;13.50;82.61;101278.19;5016887;28;20431;-79
2023/09/16 04:15:29;;;;;;;5.97;5.17;;;;;;;13.42;82.99;101276.50;5012226;28;20457;-81
2023/09/16 04:17:59;;;;;;;8.37;4.80;;;;;;;13.44;82.65;101285.31;5007900;28;20500;-82
2023/09/16 04:20:29;;;;;;;9.20;4.60;;;;;;;13.43;82.77;101282.78;5007046;28;20441;-81
2023/09/16 04:22:58;;;;;;;4.97;4.47;;;;;;;13.40;83.18;101285.94;4999136;28;20478;-83
2023/09/16 04:25:29;;;;;;;5.37;4.10;;;;;;;13.31;83.53;101274.41;5004523;28;20484;-82
2023/09/16 04:28:00;;;;;;;6.37;4.37;;;;;;;13.26;84.06;101279.69;5015645;28;20448;-83
2023/09/16 04:30:30;;;;;;;6.63;4.70;;;;;;;13.46;83.05;101277.75;4991147;28;20534;-82
2023/09/16 04:33:00;;;;;;;7.20;4.60;;;;;;;13.47;82.77;101270.44;4998677;28;20442;-81
2023/09/16 04:35:29;;;;;;;7.63;4.90;;;;;;;13.44;82.69;101276.31;5002304;28;20446;-80
2023/09/16 04:37:59;;;;;;;4.77;4.00;;;;;;;13.38;83.16;101279.84;4997771;28;20469;-82
2023/09/16 04:40:29;;;;;;;8.50;4.60;;;;;;;13.35;83.45;101286.56;5013277;28;20416;-81
2023/09/16 04:43:00;;;;;;;9.50;4.60;;;;;;;13.35;83.67;101283.84;5006993;28;20533;-81
2023/09/16 04:45:31;;;;;;;8.30;4.70;;;;;;;13.32;83.88;101278.81;4998098;28;20525;-82
2023/09/16 04:48:01;;;;;;;5.90;4.73;;;;;;;13.39;83.40;101278.81;4996939;28;20476;-81
2023/09/16 04:50:35;;;;;;;5.33;4.83;;;;;;;13.39;83.17;101282.38;4995989;28;21011;-82
2023/09/16 04:53:27;;;;;;;8.90;4.20;;;;;;;13.38;83.42;101279.84;4991348;28;20525;-83
2023/09/16 04:56:01;;;;;;;7.30;4.50;;;;;;;13.34;83.91;101284.88;4995320;28;20416;-82
2023/09/16 04:58:34;;;;;;;7.53;4.30;;;;;;;13.47;83.34;101286.75;5002897;28;20448;-82
2023/09/16 05:01:04;;;;;;;8.13;4.70;;;;;;;13.47;83.19;101289.47;5001670;28;20481;-82
2023/09/16 05:03:35;;;;;;;8.67;4.13;;;;;;;13.51;82.99;101293.44;4994629;28;20456;-82
2023/09/16 05:06:05;;;;;;;8.50;4.37;;;;;;;13.56;82.43;101288.19;5002693;28;20446;-83
2023/09/16 05:08:37;;;;;;;7.17;4.90;;;;;;;13.66;82.42;101287.75;4996881;28;20501;-82
2023/09/16 05:11:07;;;;;;;7.53;5.30;;;;;;;13.72;81.82;101287.75;5006031;28;20445;-81
2023/09/16 05:13:52;;;;;;;5.70;4.00;;;;;;;13.71;81.47;101294.22;5004381;28;20449;-83
2023/09/16 05:16:23;;;;;;;11.27;5.17;;;;;;;13.75;81.79;101298.19;5021467;28;20869;-82
2023/09/16 05:18:53;;;;;;;8.33;4.70;;;;;;;13.84;81.05;101301.53;5010750;28;20420;-82
2023/09/16 05:21:23;;;;;;;8.20;5.30;;;;;;;13.93;80.76;101305.69;5015055;28;20449;-81
2023/09/16 05:23:53;;;;;;;6.40;4.90;;;;;;;13.87;80.58;101301.09;5000209;28;20446;-83
2023/09/16 05:26:26;;;;;;;7.40;4.70;;;;;;;13.92;80.83;101301.28;5008394;28;20467;-83
2023/09/16 05:28:57;;;;;;;9.50;4.80;;;;;;;14.02;79.65;101304.41;5011157;28;20527;-83
2023/09/16 05:31:29;;;;;;;5.47;4.83;;;;;;;14.02;80.15;101295.41;5002522;28;20519;-82
2023/09/16 05:33:59;;;;;;;7.07;4.27;;;;;;;14.09;79.47;101294.31;5000218;28;20845;-83
2023/09/16 05:36:29;;;;;;;9.23;5.50;;;;;;;14.20;78.86;101290.91;4995715;28;20437;-83
2023/09/16 05:38:58;;;;;;;6.20;4.10;;;;;;;14.14;79.37;101291.78;5000181;28;20442;-82
2023/09/16 05:41:28;;;;;;;6.70;4.80;;;;;;;14.27;78.96;101291.75;5004323;28;20434;-83
2023/09/16 05:44:01;;;;;;;5.03;4.53;;;;;;;14.27;78.94;101297.19;4997425;28;20473;-82
2023/09/16 05:46:30;;;;;;;9.17;6.17;;;;;;;14.26;78.97;101298.22;4997667;28;20505;-81
2023/09/16 05:49:07;;;;;;;6.60;5.20;;;;;;;14.39;78.08;101301.97;4997618;28;20994;-82
2023/09/16 05:51:38;;;;;;;6.53;4.80;;;;;;;14.42;77.70;101307.00;4995129;28;20429;-82
2023/09/16 05:54:08;;;;;;;6.67;4.87;;;;;;;14.52;76.90;101307.34;4995480;28;20410;-79
2023/09/16 05:56:38;;;;;;;6.73;4.47;;;;;;;14.63;77.16;101306.63;5006909;28;20444;-80
2023/09/16 05:59:10;;;;;;;7.07;5.43;;;;;;;14.75;76.38;101304.91;5003721;28;20455;-82
2023/09/16 06:01:40;;;;;;;7.57;5.17;;;;;;;14.92;74.93;101308.75;5005018;28;20434;-82
2023/09/16 06:04:09;;;;;;;9.63;4.50;;;;;;;14.94;75.12;101309.38;5006157;28;20480;-83
2023/09/16 06:06:39;;;;;;;7.93;5.53;;;;;;;14.89;75.10;101311.09;5005626;28;20430;-82
2023/09/16 06:09:09;;;;;;;8.80;5.10;;;;;;;14.97;74.75;101319.81;4987428;28;20523;-82
2023/09/16 06:11:39;;;;;;;6.50;5.07;;;;;;;15.02;74.39;101317.28;5001948;28;20795;-82
2023/09/16 06:14:10;;;;;;;8.07;5.93;;;;;;;15.17;74.33;101320.50;5002395;28;20436;-82
2023/09/16 06:16:40;;;;;;;8.30;5.37;;;;;;;15.22;74.17;101323.41;5010356;28;20433;-83
2023/09/16 06:19:10;;;;;;;9.07;5.80;;;;;;;15.39;73.11;101323.69;5004710;28;20448;-83
2023/09/16 06:21:39;;;;;;;13.30;5.50;;;;;;;15.38;72.56;101316.56;5008169;28;20449;-82
2023/09/16 06:24:09;;;;;;;6.90;5.23;;;;;;;15.34;72.78;101319.97;5015544;28;20445;-81
2023/09/16 06:26:39;;;;;;;6.37;5.23;;;;;;;15.45;72.57;101319.22;5010999;28;20465;-79
2023/09/16 06:29:10;;;;;;;5.73;5.13;;;;;;;15.56;71.99;101319.38;5009052;28;20461;-79
2023/09/16 06:31:39;;;;;;;7.10;5.10;;;;;;;15.71;71.95;101316.28;5022476;28;20442;-79
2023/09/16 06:34:10;;;;;;;7.40;5.33;;;;;;;15.78;71.11;101317.03;5017843;28;20477;-80
2023/09/16 06:36:41;;;;;;;8.83;4.50;;;;;;;15.93;70.82;101320.22;5026852;28;20449;-82
2023/09/16 06:39:11;;;;;;;9.43;6.20;;;;;;;15.98;70.76;101320.38;5003569;28;20434;-82
2023/09/16 06:41:42;;;;;;;6.23;5.43;;;;;;;16.04;70.35;101322.22;5001485;28;20430;-81
2023/09/16 06:44:16;;;;;;;7.50;5.13;;;;;;;16.21;70.59;101321.59;5007439;28;20446;-81
2023/09/16 06:46:46;;;;;;;11.87;5.80;;;;;;;16.37;69.07;101323.69;5000894;28;20494;-82
2023/09/16 06:49:18;;;;;;;11.00;7.30;;;;;;;16.55;68.33;101320.94;5010683;28;20468;-82
2023/09/16 06:51:50;;;;;;;9.00;5.73;;;;;;;16.27;69.43;101320.66;5019264;28;20454;-82
2023/09/16 06:54:19;;;;;;;6.00;5.23;;;;;;;16.45;69.21;101318.75;5011764;28;20550;-82
2023/09/16 06:56:49;;;;;;;6.93;5.03;;;;;;;16.54;68.93;101322.00;4993249;28;20532;-81
2023/09/16 06:59:20;;;;;;;6.63;4.87;;;;;;;16.70;68.66;101323.28;5013392;28;20978;-83
2023/09/16 07:01:49;;;;;;;10.73;5.30;;;;;;;16.82;68.17;101327.72;4993792;28;20453;-82
2023/09/16 07:04:18;;;;;;;6.73;5.07;;;;;;;16.91;67.71;101322.75;5006250;28;20473;-83
2023/09/16 07:06:48;;;;;;;9.43;5.73;;;;;;;16.98;67.70;101311.72;5001957;28;20435;-84
2023/09/16 07:09:19;;;;;;;6.43;5.83;;;;;;;16.81;67.84;101317.00;5020735;28;20831;-83
2023/09/16 07:11:48;;;;;;;6.23;5.40;;;;;;;17.03;67.58;101311.84;4999442;28;20477;-84
2023/09/16 07:14:19;;;;;;;8.00;5.23;;;;;;;17.16;67.52;101314.38;5013038;28;20430;-83
2023/09/16 07:16:49;;;;;;;7.57;5.60;;;;;;;17.17;67.13;101313.31;5015474;28;20481;-82
2023/09/16 07:19:18;;;;;;;7.10;5.07;;;;;;;17.25;67.02;101308.31;5013495;28;20449;-83
2023/09/16 07:21:48;;;;;;;6.50;4.90;;;;;;;17.43;66.85;101310.09;5002931;28;20416;-83
2023/09/16 07:24:17;;;;;;;8.73;5.53;;;;;;;17.44;66.32;101311.78;5003122;28;20449;-83
2023/09/16 07:26:47;;;;;;;8.27;5.20;;;;;;;17.41;65.93;101312.25;5006759;28;20472;-82
2023/09/16 07:29:18;;;;;;;7.83;6.10;;;;;;;17.37;66.39;101311.06;4996428;28;20467;-83
2023/09/16 07:31:48;;;;;;;5.53;5.03;;;;;;;17.66;65.58;101307.41;5011086;28;20870;-83
2023/09/16 07:34:19;;;;;;;8.40;5.43;;;;;;;17.72;65.46;101311.91;4995708;28;20484;-83
2023/09/16 07:36:48;;;;;;;5.73;5.00;;;;;;;17.92;66.07;101311.53;4997980;28;20469;-82
2023/09/16 07:39:18;;;;;;;6.33;5.60;;;;;;;18.06;64.72;101309.38;4993047;28;20439;-82
2023/09/16 07:41:47;;;;;;;7.77;5.27;;;;;;;18.04;64.51;101300.56;5001979;28;20431;-82
2023/09/16 07:44:18;;;;;;;5.87;5.13;;;;;;;18.03;64.54;101299.75;5025020;28;20850;-80
2023/09/16 07:46:48;;;;;;;6.97;5.37;;;;;;;18.17;64.27;101305.78;4998205;28;21061;-83
2023/09/16 07:49:18;;;;;;;7.40;5.20;;;;;;;18.13;64.36;101297.22;5019767;28;20476;-83
2023/09/16 07:51:49;;;;;;;9.07;6.00;;;;;;;18.18;64.67;101285.53;5005336;28;20420;-79
2023/09/16 07:54:18;;;;;;;8.90;5.53;;;;;;;18.33;64.18;101293.22;5028891;28;20977;-82
2023/09/16 07:56:48;;;;;;;6.47;5.10;;;;;;;18.35;64.26;101302.84;5004969;28;20845;-84
2023/09/16 07:59:20;;;;;;;9.83;5.60;;;;;;;18.44;63.32;101293.19;4996992;28;20454;-80
2023/09/16 08:01:49;;;;;;;11.13;7.23;;;;;;;18.53;63.51;101294.50;5010474;28;20459;-82
2023/09/16 08:04:19;;;;;;;5.67;4.40;;;;;;;18.69;62.94;101297.53;4998093;28;20406;-82
2023/09/16 08:06:49;;;;;;;5.20;4.23;;;;;;;18.71;63.31;101292.63;5004837;28;20480;-81
2023/09/16 08:09:19;;;;;;;13.37;8.53;;;;;;;18.93;63.00;101293.56;5016539;28;20461;-81
2023/09/16 08:11:49;;;;;;;7.93;5.30;;;;;;;19.06;62.29;101299.56;4998618;28;20442;-80
2023/09/16 08:14:19;;;;;;;8.27;6.37;;;;;;;19.26;61.78;101292.75;4991441;28;20852;-84
2023/09/16 08:16:52;;;;;;;8.63;6.47;;;;;;;19.61;60.19;101289.72;5006941;28;20444;-82
2023/09/16 08:19:21;;;;;;;6.37;5.77;;;;;;;19.63;60.23;101293.06;4999667;28;20419;-80
2023/09/16 08:21:52;;;;;;;7.23;4.73;;;;;;;19.59;60.18;101294.66;5017494;28;20481;-82
2023/09/16 08:24:22;;;;;;;8.33;5.07;;;;;;;19.61;60.57;101300.72;5018462;28;20412;-81
2023/09/16 08:26:52;;;;;;;7.00;5.07;;;;;;;19.65;60.19;101296.41;5011167;28;20429;-86
2023/09/16 08:29:23;;;;;;;5.97;5.37;;;;;;;19.63;60.15;101293.06;5003753;28;20423;-82
2023/09/16 08:31:52;;;;;;;7.07;6.13;;;;;;;19.79;60.46;101293.06;5008869;28;20450;-84
2023/09/16 08:34:22;;;;;;;10.20;5.40;;;;;;;20.07;59.38;101288.47;5004418;28;20401;-82
2023/09/16 08:36:51;;;;;;;9.80;5.87;;;;;;;20.14;59.32;101287.16;5011104;28;20451;-82
2023/09/16 08:39:20;;;;;;;7.90;5.37;;;;;;;20.46;58.64;101281.81;5011620;28;20447;-83
2023/09/16 08:41:56;;;;;;;7.37;5.53;;;;;;;20.67;57.81;101288.38;5011610;28;20907;-81
2023/09/16 08:44:30;;;;;;;5.70;5.07;;;;;;;20.61;57.48;101284.75;5016397;28;20462;-82
2023/09/16 08:47:05;;;;;;;7.97;5.13;;;;;;;20.57;57.22;101280.03;5002144;28;20477;-83
2023/09/16 08:49:40;;;;;;;10.37;5.17;;;;;;;20.57;57.48;101274.53;5004449;28;20421;-83
2023/09/16 08:52:10;;;;;;;6.70;5.50;;;;;;;20.63;57.54;101281.72;4998147;28;20441;-84
2023/09/16 08:54:43;;;;;;;8.20;5.83;;;;;;;20.66;56.93;101283.97;5007593;28;20407;-84
2023/09/16 08:57:14;;;;;;;9.63;5.83;;;;;;;20.73;57.77;101288.16;5010017;28;20835;-82
2023/09/16 08:59:46;;;;;;;6.03;4.83;;;;;;;20.74;57.50;101286.22;5022509;28;20731;-82
2023/09/16 09:02:16;;;;;;;6.67;5.10;;;;;;;20.65;57.15;101282.28;5011329;28;20429;-80
2023/09/16 09:04:46;;;;;;;7.30;5.43;;;;;;;20.63;57.41;101279.78;5018663;28;20464;-81
2023/09/16 09:07:16;;;;;;;6.47;5.37;;;;;;;20.64;58.02;101277.88;5017677;28;20472;-80
2023/09/16 09:09:46;;;;;;;6.57;5.87;;;;;;;20.69;57.55;101280.69;5018421;28;20413;-81
2023/09/16 09:12:19;;;;;;;6.50;5.27;;;;;;;20.42;58.08;101271.59;5007301;28;20506;-80
2023/09/16 09:14:50;;;;;;;8.13;5.33;;;;;;;20.29;58.87;101270.88;5016187;28;20473;-79
2023/09/16 09:17:22;;;;;;;5.80;5.20;;;;;;;20.61;57.97;101272.91;5021215;28;20641;-80
2023/09/16 09:19:55;;;;;;;6.73;5.60;;;;;;;20.94;57.24;101267.16;5021240;28;20420;-81
2023/09/16 09:22:25;;;;;;;6.50;4.90;;;;;;;21.28;56.25;101265.00;5022391;28;20417;-80
2023/09/16 09:24:55;;;;;;;8.73;6.83;;;;;;;21.39;55.64;101263.16;5010534;28;20445;-81
2023/09/16 09:27:29;;;;;;;7.00;5.37;;;;;;;21.52;54.92;101265.44;5027420;28;20467;-83
2023/09/16 09:30:00;;;;;;;6.67;5.90;;;;;;;21.58;54.35;101258.88;4999695;28;20421;-82
2023/09/16 09:32:31;;;;;;;10.60;5.23;;;;;;;21.72;54.57;101256.47;5000833;28;20526;-84
2023/09/16 09:35:05;;;;;;;5.90;5.20;;;;;;;22.01;54.03;101253.06;5003910;28;20414;-82
2023/09/16 09:37:35;;;;;;;8.57;5.33;;;;;;;22.29;53.61;101250.94;5020386;28;20487;-83
2023/09/16 09:40:10;;;;;;;5.77;5.20;;;;;;;22.54;52.59;101253.78;5017738;28;20430;-80
2023/09/16 09:42:44;;;;;;;7.20;5.70;;;;;;;22.58;51.36;101245.78;5007565;28;20468;-83
2023/09/16 09:45:16;;;;;;;7.03;5.10;;;;;;;22.47;52.31;101247.66;5010482;28;20492;-83
2023/09/16 09:47:47;;;;;;;7.90;4.60;;;;;;;22.16;53.16;101240.44;5001689;28;20434;-81
2023/09/16 09:50:19;;;;;;;6.00;5.40;;;;;;;21.80;54.35;101237.50;5007066;28;20448;-81
2023/09/16 09:52:49;;;;;;;8.90;5.87;;;;;;;21.60;54.94;101243.72;5000099;28;20484;-83
2023/09/16 09:55:22;;;;;;;6.20;5.60;;;;;;;21.62;54.78;101235.22;5003711;28;20450;-82
2023/09/16 09:57:53;;;;;;;7.03;5.47;;;;;;;21.71;55.03;101239.09;5019096;28;20569;-82
2023/09/16 10:00:26;;;;;;;5.07;4.23;;;;;;;21.96;54.40;101231.00;5005496;28;20534;-82
2023/09/16 10:03:00;;;;;;;7.90;5.77;;;;;;;22.19;54.29;101226.09;5016678;28;20458;-82
2023/09/16 10:05:36;;;;;;;5.20;4.70;;;;;;;22.45;53.38;101230.59;5011258;28;20478;-81
2023/09/16 10:08:06;;;;;;;7.73;6.03;;;;;;;22.82;51.86;101231.22;5020264;28;20422;-83
2023/09/16 10:10:37;;;;;;;8.30;5.67;;;;;;;23.15;50.97;101235.34;5026754;28;20494;-82
2023/09/16 10:13:08;;;;;;;5.07;4.57;;;;;;;23.49;49.85;101227.31;5009524;28;20446;-80
2023/09/16 10:15:40;;;;;;;6.03;4.60;;;;;;;23.47;49.19;101223.19;5024602;28;20401;-81
2023/09/16 10:18:12;;;;;;;6.80;5.60;;;;;;;23.28;49.31;101225.66;5015095;28;20445;-80
2023/09/16 10:20:44;;;;;;;5.93;4.60;;;;;;;22.99;50.34;101216.31;5022405;28;20421;-81
2023/09/16 10:23:14;;;;;;;7.27;5.53;;;;;;;23.21;49.80;101219.59;5008613;28;20481;-80
2023/09/16 10:25:43;;;;;;;6.53;5.77;;;;;;;23.50;49.61;101217.91;5027662;28;20446;-81
2023/09/16 10:28:13;;;;;;;5.93;4.83;;;;;;;23.57;49.34;101210.16;5013223;28;20446;-81
2023/09/16 10:30:46;;;;;;;5.77;4.73;;;;;;;23.97;49.25;101200.03;5004124;28;20430;-80
2023/09/16 10:33:16;;;;;;;9.30;5.57;;;;;;;24.12;48.41;101202.72;5004339;28;20536;-82
2023/09/16 10:35:46;;;;;;;7.83;5.23;;;;;;;24.16;47.83;101203.81;5017747;28;20466;-81
2023/09/16 10:38:16;;;;;;;6.53;5.67;;;;;;;24.16;48.17;101201.91;5011486;28;20494;-81
2023/09/16 10:40:45;;;;;;;6.40;5.00;;;;;;;24.17;47.91;101189.75;5008148;28;20445;-81
2023/09/16 10:43:17;;;;;;;7.00;5.50;;;;;;;24.12;48.28;101186.13;5037900;28;20459;-81
2023/09/16 10:45:50;;;;;;;6.50;5.90;;;;;;;23.96;48.50;101199.25;5021689;28;20484;-80
2023/09/16 10:48:19;;;;;;;8.23;6.00;;;;;;;24.12;48.70;101186.13;5004748;28;21023;-81
2023/09/16 10:50:50;;;;;;;9.53;5.07;;;;;;;24.26;48.92;101192.72;5027932;28;20487;-82
2023/09/16 10:53:24;;;;;;;6.20;5.50;;;;;;;24.24;48.60;101187.50;5014186;28;20450;-81
2023/09/16 10:55:59;;;;;;;6.03;4.87;;;;;;;24.39;48.32;101182.97;5010925;28;20521;-79
2023/09/16 10:58:35;;;;;;;5.63;5.03;;;;;;;24.50;48.25;101182.59;5014659;28;20465;-81
2023/09/16 11:01:13;;;;;;;8.07;7.07;;;;;;;24.58;48.66;101179.25;5015691;28;20505;-82
2023/09/16 11:03:47;;;;;;;9.03;6.23;;;;;;;24.77;47.53;101170.22;5013729;28;20419;-80
2023/09/16 11:06:17;;;;;;;8.03;4.67;;;;;;;24.61;47.40;101173.13;5017320;28;20433;-80
2023/09/16 11:08:47;;;;;;;8.17;6.67;;;;;;;24.06;48.85;101179.00;5016335;28;20484;-81
2023/09/16 11:11:18;;;;;;;7.90;5.67;;;;;;;24.22;49.10;101172.28;5013305;28;20476;-81
2023/09/16 11:13:48;;;;;;;7.10;6.40;;;;;;;24.34;48.69;101178.31;5005258;28;20462;-81
2023/09/16 11:16:23;;;;;;;6.80;5.90;;;;;;;24.31;48.60;101166.97;5014054;28;20405;-81
2023/09/16 11:18:53;;;;;;;5.90;5.40;;;;;;;24.42;48.74;101166.63;5017616;28;20642;-82
2023/09/16 11:21:25;;;;;;;7.50;6.13;;;;;;;24.54;48.53;101157.97;5013199;28;20414;-80
2023/09/16 11:23:54;;;;;;;6.80;6.20;;;;;;;24.47;48.65;101155.53;5010033;28;20411;-83
2023/09/16 11:26:23;;;;;;;6.67;6.03;;;;;;;24.61;48.61;101150.16;5011448;28;20381;-81
2023/09/16 11:28:53;;;;;;;7.03;6.43;;;;;;;24.62;48.52;101147.09;5023922;28;20437;-79
2023/09/16 11:31:24;;;;;;;7.67;5.83;;;;;;;24.51;48.21;101151.06;5012417;28;20453;-80
2023/09/16 11:34:00;;;;;;;12.47;8.83;;;;;;;24.66;48.47;101153.72;5013300;28;20423;-81
2023/09/16 11:36:35;;;;;;;7.63;7.03;;;;;;;24.62;48.54;101147.09;5011619;28;20471;-81
2023/09/16 11:39:21;;;;;;;6.23;5.57;;;;;;;24.67;48.40;101144.31;5014117;28;20435;-79
2023/09/16 11:41:52;;;;;;;6.33;5.70;;;;;;;24.76;48.05;101138.13;5017474;28;20461;-81